HISTORICAL SENSOR DATA

Sensor Data Report

DB LIVE
CURRENT TIME--:--:--
DEVICE NETWORK Gateway Status
13 ESP · realtime ~1s · history 60s
Weather WS-MOD-01
WARNING
Actuator ACT-MOD-01
OFFLINE
Mainboard L3 MB-L3-01
OFFLINE
Mainboard L5 MB-L5-01
WARNING
Remote AC AC-REMOTE-01
OFFLINE
PZEM L3-01 PWR-L3-01
OFFLINE
PZEM L3-02 PWR-L3-02
OFFLINE
PZEM L3-03 PWR-L3-03
OFFLINE
PZEM L3-04 PWR-L3-04
OFFLINE
PZEM L5-01 PWR-L5-01
WARNING
PZEM L5-02 PWR-L5-02
OFFLINE
PZEM L5-03 PWR-L5-03
OFFLINE
PZEM L5-04 PWR-L5-04
OFFLINE
REPORT FILTER

Periode & Sensor

DATABASE HISTORY
RESET
QUICK RANGE Hari ini 7 hari 30 hari
PERIODE08 Aug 2026sampai 06 Sep 2026
TOTAL DATA44,094sensor readings
MINIMUM-0.50sesuai filter
AVERAGE88.86sesuai filter
MAXIMUM32,564.20sesuai filter
REPORT RESULT

Data Sensor

08/08/2026 — 06/09/2026 EXPORT CSV
NOTANGGALWAKTUDEVICECHANNELSENSORVALUEUNIT
2201 06/09/2026 13:49:00 MB-L5-01Mainboard Lantai 5 L5-SHT-02-T SHT20 2 Temperature 30.60 °C
2202 06/09/2026 13:49:00 MB-L5-01Mainboard Lantai 5 L5-LUX-03 Illuminance / LUX 3 1,091.30 lux
2203 06/09/2026 13:49:00 MB-L5-01Mainboard Lantai 5 L5-HFT-02 Heat Flow Temperature 2 30.90 °C
2204 06/09/2026 13:49:00 MB-L5-01Mainboard Lantai 5 L5-BGT-02 Black Globe Temperature 2 30.10 °C
2205 06/09/2026 13:49:00 MB-L5-01Mainboard Lantai 5 L5-AI-02 Analog Input 2 3.05 V
2206 06/09/2026 13:49:00 MB-L5-01Mainboard Lantai 5 L5-LUX-04 Illuminance / LUX 4 774.20 lux
2207 06/09/2026 13:49:00 WS-MOD-01Weather Station Module WS-DIR Arah Angin 183.70 °
2208 06/09/2026 13:49:00 MB-L5-01Mainboard Lantai 5 L5-ST-01 Surface Temperature 1 32.80 °C
2209 06/09/2026 13:49:00 MB-L5-01Mainboard Lantai 5 L5-LUX-06 Illuminance / LUX 6 1,138.00 lux
2210 06/09/2026 13:49:00 MB-L5-01Mainboard Lantai 5 L5-RAD-01 Radiation 1 5.00 W/m²
2211 06/09/2026 13:49:00 MB-L5-01Mainboard Lantai 5 L5-LUX-05 Illuminance / LUX 5 32,564.20 lux
2212 06/09/2026 13:49:00 MB-L5-01Mainboard Lantai 5 L5-SHT-02-RH SHT20 2 Humidity 32.80 %RH
2213 06/09/2026 13:49:00 WS-MOD-01Weather Station Module WS-WIND Kecepatan Angin 6.36 m/s
2214 06/09/2026 13:49:00 MB-L5-01Mainboard Lantai 5 L5-AI-04 Analog Input 4 3.05 V
2215 06/09/2026 13:49:00 MB-L5-01Mainboard Lantai 5 L5-HFT-01 Heat Flow Temperature 1 33.80 °C
2216 06/09/2026 13:49:00 MB-L5-01Mainboard Lantai 5 L5-BGT-01 Black Globe Temperature 1 30.50 °C
2217 06/09/2026 13:49:00 MB-L5-01Mainboard Lantai 5 L5-AI-01 Analog Input 1 3.05 V
2218 06/09/2026 13:49:00 MB-L5-01Mainboard Lantai 5 L5-RAD-02 Radiation 2 4.00 W/m²
2219 06/09/2026 13:49:00 MB-L5-01Mainboard Lantai 5 L5-SHT-01-T SHT20 1 Temperature 31.20 °C
2220 06/09/2026 13:49:00 MB-L5-01Mainboard Lantai 5 L5-SHT-03-T SHT20 3 Temperature 31.00 °C
2221 06/09/2026 13:49:00 WS-MOD-01Weather Station Module WS-TEMP Suhu Udara 29.80 °C
2222 06/09/2026 13:49:00 MB-L5-01Mainboard Lantai 5 L5-AI-06 Analog Input 6 3.05 V
2223 06/09/2026 13:49:00 MB-L5-01Mainboard Lantai 5 L5-SHT-01-RH SHT20 1 Humidity 32.90 %RH
2224 06/09/2026 13:49:00 MB-L5-01Mainboard Lantai 5 L5-BGT-03 Black Globe Temperature 3 30.40 °C
2225 06/09/2026 13:49:00 MB-L5-01Mainboard Lantai 5 L5-AI-03 Analog Input 3 3.05 V
2226 06/09/2026 13:49:00 WS-MOD-01Weather Station Module WS-RH Kelembapan Udara 36.30 %RH
2227 06/09/2026 13:49:00 MB-L5-01Mainboard Lantai 5 L5-SHT-03-RH SHT20 3 Humidity 32.30 %RH
2228 06/09/2026 13:49:00 MB-L5-01Mainboard Lantai 5 L5-ST-02 Surface Temperature 2 33.70 °C
2229 06/09/2026 13:49:00 MB-L5-01Mainboard Lantai 5 L5-LUX-02 Illuminance / LUX 2 2,727.80 lux
2230 06/09/2026 13:49:00 MB-L5-01Mainboard Lantai 5 L5-LUX-01 Illuminance / LUX 1 620.50 lux
2231 06/09/2026 13:48:00 MB-L5-01Mainboard Lantai 5 L5-AI-02 Analog Input 2 3.05 V
2232 06/09/2026 13:48:00 MB-L5-01Mainboard Lantai 5 L5-LUX-04 Illuminance / LUX 4 772.50 lux
2233 06/09/2026 13:48:00 WS-MOD-01Weather Station Module WS-DIR Arah Angin 174.60 °
2234 06/09/2026 13:48:00 MB-L5-01Mainboard Lantai 5 L5-ST-01 Surface Temperature 1 32.30 °C
2235 06/09/2026 13:48:00 MB-L5-01Mainboard Lantai 5 L5-LUX-06 Illuminance / LUX 6 1,133.30 lux
2236 06/09/2026 13:48:00 MB-L5-01Mainboard Lantai 5 L5-RAD-01 Radiation 1 5.00 W/m²
2237 06/09/2026 13:48:00 MB-L5-01Mainboard Lantai 5 L5-LUX-05 Illuminance / LUX 5 28,335.10 lux
2238 06/09/2026 13:48:00 MB-L5-01Mainboard Lantai 5 L5-SHT-02-RH SHT20 2 Humidity 33.20 %RH
2239 06/09/2026 13:48:00 WS-MOD-01Weather Station Module WS-WIND Kecepatan Angin 4.36 m/s
2240 06/09/2026 13:48:00 MB-L5-01Mainboard Lantai 5 L5-AI-04 Analog Input 4 3.05 V
2241 06/09/2026 13:48:00 MB-L5-01Mainboard Lantai 5 L5-HFT-01 Heat Flow Temperature 1 33.70 °C
2242 06/09/2026 13:48:00 MB-L5-01Mainboard Lantai 5 L5-BGT-01 Black Globe Temperature 1 30.40 °C
2243 06/09/2026 13:48:00 MB-L5-01Mainboard Lantai 5 L5-AI-01 Analog Input 1 3.05 V
2244 06/09/2026 13:48:00 MB-L5-01Mainboard Lantai 5 L5-RAD-02 Radiation 2 4.00 W/m²
2245 06/09/2026 13:48:00 MB-L5-01Mainboard Lantai 5 L5-SHT-01-T SHT20 1 Temperature 30.90 °C
2246 06/09/2026 13:48:00 MB-L5-01Mainboard Lantai 5 L5-SHT-03-T SHT20 3 Temperature 30.50 °C
2247 06/09/2026 13:48:00 WS-MOD-01Weather Station Module WS-TEMP Suhu Udara 30.60 °C
2248 06/09/2026 13:48:00 MB-L5-01Mainboard Lantai 5 L5-AI-06 Analog Input 6 3.05 V
2249 06/09/2026 13:48:00 MB-L5-01Mainboard Lantai 5 L5-SHT-01-RH SHT20 1 Humidity 33.50 %RH
2250 06/09/2026 13:48:00 MB-L5-01Mainboard Lantai 5 L5-BGT-03 Black Globe Temperature 3 30.30 °C
2251 06/09/2026 13:48:00 MB-L5-01Mainboard Lantai 5 L5-AI-03 Analog Input 3 3.05 V
2252 06/09/2026 13:48:00 WS-MOD-01Weather Station Module WS-RH Kelembapan Udara 35.60 %RH
2253 06/09/2026 13:48:00 MB-L5-01Mainboard Lantai 5 L5-SHT-03-RH SHT20 3 Humidity 33.00 %RH
2254 06/09/2026 13:48:00 MB-L5-01Mainboard Lantai 5 L5-ST-02 Surface Temperature 2 33.60 °C
2255 06/09/2026 13:48:00 MB-L5-01Mainboard Lantai 5 L5-LUX-02 Illuminance / LUX 2 2,709.70 lux
2256 06/09/2026 13:48:00 MB-L5-01Mainboard Lantai 5 L5-LUX-01 Illuminance / LUX 1 624.10 lux
2257 06/09/2026 13:48:00 WS-MOD-01Weather Station Module WS-PRES Tekanan Udara 908.00 hPa
2258 06/09/2026 13:48:00 MB-L5-01Mainboard Lantai 5 L5-AI-05 Analog Input 5 3.05 V
2259 06/09/2026 13:48:00 MB-L5-01Mainboard Lantai 5 L5-SHT-02-T SHT20 2 Temperature 30.30 °C
2260 06/09/2026 13:48:00 MB-L5-01Mainboard Lantai 5 L5-LUX-03 Illuminance / LUX 3 1,094.50 lux
2261 06/09/2026 13:48:00 MB-L5-01Mainboard Lantai 5 L5-HFT-02 Heat Flow Temperature 2 30.70 °C
2262 06/09/2026 13:48:00 MB-L5-01Mainboard Lantai 5 L5-BGT-02 Black Globe Temperature 2 30.20 °C
2263 06/09/2026 12:04:00 MB-L5-01Mainboard Lantai 5 L5-LUX-05 Illuminance / LUX 5 2,420.10 lux
2264 06/09/2026 12:04:00 MB-L5-01Mainboard Lantai 5 L5-SHT-02-RH SHT20 2 Humidity 35.50 %RH
2265 06/09/2026 12:04:00 WS-MOD-01Weather Station Module WS-WIND Kecepatan Angin 2.86 m/s
2266 06/09/2026 12:04:00 MB-L5-01Mainboard Lantai 5 L5-AI-04 Analog Input 4 3.05 V
2267 06/09/2026 12:04:00 MB-L5-01Mainboard Lantai 5 L5-HFT-01 Heat Flow Temperature 1 30.20 °C
2268 06/09/2026 12:04:00 MB-L5-01Mainboard Lantai 5 L5-BGT-01 Black Globe Temperature 1 28.40 °C
2269 06/09/2026 12:04:00 MB-L5-01Mainboard Lantai 5 L5-AI-01 Analog Input 1 3.05 V
2270 06/09/2026 12:04:00 MB-L5-01Mainboard Lantai 5 L5-RAD-02 Radiation 2 4.00 W/m²
2271 06/09/2026 12:04:00 MB-L5-01Mainboard Lantai 5 L5-SHT-01-T SHT20 1 Temperature 30.90 °C
2272 06/09/2026 12:04:00 MB-L5-01Mainboard Lantai 5 L5-SHT-03-T SHT20 3 Temperature 30.30 °C
2273 06/09/2026 12:04:00 WS-MOD-01Weather Station Module WS-TEMP Suhu Udara 27.70 °C
2274 06/09/2026 12:04:00 MB-L5-01Mainboard Lantai 5 L5-AI-06 Analog Input 6 3.05 V
2275 06/09/2026 12:04:00 MB-L5-01Mainboard Lantai 5 L5-SHT-01-RH SHT20 1 Humidity 34.60 %RH
2276 06/09/2026 12:04:00 MB-L5-01Mainboard Lantai 5 L5-BGT-03 Black Globe Temperature 3 28.30 °C
2277 06/09/2026 12:04:00 MB-L5-01Mainboard Lantai 5 L5-AI-03 Analog Input 3 3.05 V
2278 06/09/2026 12:04:00 WS-MOD-01Weather Station Module WS-RH Kelembapan Udara 40.50 %RH
2279 06/09/2026 12:04:00 MB-L5-01Mainboard Lantai 5 L5-SHT-03-RH SHT20 3 Humidity 35.40 %RH
2280 06/09/2026 12:04:00 MB-L5-01Mainboard Lantai 5 L5-ST-02 Surface Temperature 2 32.00 °C
2281 06/09/2026 12:04:00 MB-L5-01Mainboard Lantai 5 L5-LUX-02 Illuminance / LUX 2 2,636.80 lux
2282 06/09/2026 12:04:00 MB-L5-01Mainboard Lantai 5 L5-LUX-01 Illuminance / LUX 1 575.40 lux
2283 06/09/2026 12:04:00 WS-MOD-01Weather Station Module WS-PRES Tekanan Udara 910.00 hPa
2284 06/09/2026 12:04:00 MB-L5-01Mainboard Lantai 5 L5-AI-05 Analog Input 5 3.05 V
2285 06/09/2026 12:04:00 MB-L5-01Mainboard Lantai 5 L5-SHT-02-T SHT20 2 Temperature 30.20 °C
2286 06/09/2026 12:04:00 MB-L5-01Mainboard Lantai 5 L5-LUX-03 Illuminance / LUX 3 971.80 lux
2287 06/09/2026 12:04:00 MB-L5-01Mainboard Lantai 5 L5-HFT-02 Heat Flow Temperature 2 28.60 °C
2288 06/09/2026 12:04:00 MB-L5-01Mainboard Lantai 5 L5-BGT-02 Black Globe Temperature 2 27.90 °C
2289 06/09/2026 12:04:00 MB-L5-01Mainboard Lantai 5 L5-AI-02 Analog Input 2 3.05 V
2290 06/09/2026 12:04:00 WS-MOD-01Weather Station Module WS-DIR Arah Angin 102.00 °
2291 06/09/2026 12:04:00 MB-L5-01Mainboard Lantai 5 L5-ST-01 Surface Temperature 1 29.50 °C
2292 06/09/2026 12:04:00 MB-L5-01Mainboard Lantai 5 L5-LUX-06 Illuminance / LUX 6 0.00 lux
2293 06/09/2026 12:04:00 MB-L5-01Mainboard Lantai 5 L5-RAD-01 Radiation 1 4.00 W/m²
2294 06/09/2026 12:03:00 MB-L5-01Mainboard Lantai 5 L5-SHT-01-T SHT20 1 Temperature 31.00 °C
2295 06/09/2026 12:03:00 MB-L5-01Mainboard Lantai 5 L5-SHT-03-T SHT20 3 Temperature 30.10 °C
2296 06/09/2026 12:03:00 WS-MOD-01Weather Station Module WS-TEMP Suhu Udara 28.60 °C
2297 06/09/2026 12:03:00 MB-L5-01Mainboard Lantai 5 L5-AI-06 Analog Input 6 3.05 V
2298 06/09/2026 12:03:00 MB-L5-01Mainboard Lantai 5 L5-SHT-01-RH SHT20 1 Humidity 34.40 %RH
2299 06/09/2026 12:03:00 MB-L5-01Mainboard Lantai 5 L5-BGT-03 Black Globe Temperature 3 28.60 °C
2300 06/09/2026 12:03:00 MB-L5-01Mainboard Lantai 5 L5-AI-03 Analog Input 3 3.05 V
Menampilkan maksimal 100 data per halaman